createdAt,value
2023-03-31T00:01:34.520Z,7.95
2023-03-31T00:04:36.711Z,7.97
2023-03-31T00:07:38.887Z,7.74
2023-03-31T00:10:46.672Z,7.64
2023-03-31T00:13:49.040Z,7.67
2023-03-31T00:16:51.369Z,7.72
2023-03-31T00:19:53.820Z,7.91
2023-03-31T00:22:57.719Z,7.83
2023-03-31T00:26:00.407Z,7.66
2023-03-31T00:29:03.678Z,7.57
2023-03-31T00:32:06.129Z,7.59
2023-03-31T00:35:08.940Z,7.61
2023-03-31T00:38:14.010Z,7.49
2023-03-31T00:41:16.270Z,7.47
2023-03-31T00:44:22.846Z,7.51
2023-03-31T00:47:26.724Z,7.40
2023-03-31T00:50:36.187Z,7.44
2023-03-31T00:53:38.453Z,7.55
2023-03-31T00:56:42.346Z,7.60
2023-03-31T00:59:48.156Z,7.50
2023-03-31T01:02:56.226Z,7.60
2023-03-31T01:06:06.653Z,7.87
2023-03-31T01:09:10.001Z,8.05
2023-03-31T01:12:12.662Z,8.42
2023-03-31T01:15:15.704Z,8.58
2023-03-31T01:18:21.971Z,8.60
2023-03-31T01:21:42.724Z,8.24
2023-03-31T01:24:55.180Z,7.78
2023-03-31T01:28:08.724Z,7.93
2023-03-31T01:31:29.642Z,7.98
2023-03-31T01:34:31.779Z,7.80
2023-03-31T01:37:39.843Z,7.98
2023-03-31T01:41:03.455Z,8.14
2023-03-31T01:44:23.792Z,8.37
2023-03-31T01:47:40.905Z,8.28
2023-03-31T01:50:46.657Z,8.21
2023-03-31T01:54:00.278Z,8.20
2023-03-31T01:57:09.969Z,8.26
2023-03-31T02:00:15.729Z,8.10
2023-03-31T02:03:22.625Z,7.77
2023-03-31T02:06:29.217Z,7.71
2023-03-31T02:09:35.737Z,7.82
2023-03-31T02:12:40.189Z,7.36
2023-03-31T02:15:44.451Z,7.40
2023-03-31T02:18:48.263Z,7.47
2023-03-31T02:21:51.193Z,7.96
2023-03-31T02:24:54.524Z,7.35
2023-03-31T02:28:00.463Z,7.87
2023-03-31T02:31:07.883Z,7.94
2023-03-31T02:34:10.175Z,7.85
2023-03-31T02:37:13.130Z,6.94
2023-03-31T02:40:20.787Z,7.42
2023-03-31T02:43:23.063Z,7.62
2023-03-31T02:46:26.011Z,8.03
2023-03-31T02:49:28.352Z,8.11
2023-03-31T02:52:59.144Z,8.14
2023-03-31T02:56:38.149Z,8.33
2023-03-31T03:00:01.589Z,8.29
2023-03-31T03:03:18.904Z,8.09
2023-03-31T03:06:57.564Z,8.02
2023-03-31T03:10:07.384Z,7.84
2023-03-31T03:13:23.386Z,7.69
2023-03-31T03:16:40.624Z,7.65
2023-03-31T03:19:43.213Z,7.33
2023-03-31T03:22:45.454Z,7.50
2023-03-31T03:25:48.047Z,7.44
2023-03-31T03:28:53.086Z,7.46
2023-03-31T03:31:55.541Z,7.11
2023-03-31T03:34:57.732Z,7.10
2023-03-31T03:38:00.345Z,7.34
2023-03-31T03:41:02.909Z,7.13
2023-03-31T03:44:05.755Z,7.52
2023-03-31T03:47:07.925Z,7.57
2023-03-31T03:50:12.563Z,7.60
2023-03-31T03:53:16.299Z,7.44
2023-03-31T03:56:18.498Z,7.40
2023-03-31T03:59:20.734Z,7.42
2023-03-31T04:02:23.949Z,7.50
2023-03-31T04:05:27.421Z,7.47
2023-03-31T04:08:29.703Z,7.43
2023-03-31T04:11:32.001Z,7.50
2023-03-31T04:14:34.320Z,7.59
2023-03-31T04:17:37.649Z,7.53
2023-03-31T04:20:39.961Z,7.56
2023-03-31T04:23:48.580Z,7.66
2023-03-31T04:26:51.127Z,7.69
2023-03-31T04:29:56.631Z,7.73
2023-03-31T04:33:00.433Z,7.84
2023-03-31T04:36:07.412Z,7.71
2023-03-31T04:39:12.872Z,7.68
2023-03-31T04:42:15.604Z,7.63
2023-03-31T04:45:18.366Z,7.60
2023-03-31T04:48:20.956Z,7.43
2023-03-31T04:51:23.223Z,7.26
2023-03-31T04:54:25.589Z,7.24
2023-03-31T04:57:27.908Z,7.21
2023-03-31T05:00:30.184Z,7.29
2023-03-31T05:03:32.759Z,7.43
2023-03-31T05:06:34.989Z,7.36
2023-03-31T05:09:37.185Z,7.68
2023-03-31T05:12:39.906Z,8.01
2023-03-31T05:15:45.022Z,8.86
2023-03-31T05:18:47.729Z,9.54
2023-03-31T05:21:49.989Z,11.24
2023-03-31T05:24:52.239Z,12.90
2023-03-31T14:03:36.641Z,18.24
2023-03-31T14:06:49.134Z,18.24
2023-03-31T14:09:54.055Z,17.69
2023-03-31T14:13:12.506Z,17.56
2023-03-31T14:16:14.904Z,17.66
2023-03-31T14:19:17.090Z,17.62
2023-03-31T14:22:40.573Z,17.50
2023-03-31T14:26:17.316Z,17.28
2023-03-31T14:29:31.426Z,17.18
2023-03-31T14:32:46.955Z,16.97
2023-03-31T14:35:58.680Z,16.88
2023-03-31T14:39:07.428Z,16.68
2023-03-31T14:42:21.771Z,16.85
2023-03-31T14:45:25.922Z,17.27
2023-03-31T14:48:29.938Z,17.62
2023-03-31T14:51:32.262Z,17.83
2023-03-31T14:54:37.844Z,17.86
2023-03-31T14:57:41.410Z,17.70
2023-03-31T15:00:43.684Z,17.49
2023-03-31T15:03:47.015Z,17.52
2023-03-31T15:06:50.692Z,17.50
2023-03-31T15:09:53.536Z,17.47
2023-03-31T15:12:55.697Z,17.54
2023-03-31T15:15:57.870Z,17.36
2023-03-31T15:19:01.690Z,17.17
2023-03-31T15:22:19.388Z,17.13
2023-03-31T15:25:23.724Z,16.95
2023-03-31T15:28:29.644Z,16.85
2023-03-31T15:31:32.235Z,16.82
2023-03-31T15:34:36.006Z,16.67
2023-03-31T15:37:42.867Z,16.57
2023-03-31T15:40:49.573Z,16.39
2023-03-31T15:44:27.393Z,16.18
2023-03-31T15:47:29.725Z,16.11
2023-03-31T15:50:33.137Z,16.09
2023-03-31T15:53:47.033Z,15.88
2023-03-31T15:56:51.165Z,15.84
2023-03-31T15:59:57.905Z,15.64
2023-03-31T16:03:02.039Z,15.65
2023-03-31T16:06:22.828Z,15.45
2023-03-31T16:09:39.289Z,15.40
2023-03-31T16:13:03.385Z,15.32
2023-03-31T16:16:09.253Z,15.36
2023-03-31T16:19:11.803Z,15.24
2023-03-31T16:22:18.960Z,15.17
2023-03-31T16:25:26.040Z,15.15
2023-03-31T16:28:33.520Z,15.06
2023-03-31T16:31:39.438Z,15.14
2023-03-31T16:34:52.816Z,15.09
2023-03-31T16:37:54.983Z,15.03
2023-03-31T16:40:58.129Z,14.86
2023-03-31T16:44:00.576Z,14.74
2023-03-31T16:47:02.914Z,14.61
2023-03-31T16:50:07.671Z,14.47
2023-03-31T16:53:10.699Z,14.36
2023-03-31T16:56:13.835Z,14.36
2023-03-31T16:59:16.383Z,14.34
2023-03-31T17:02:18.742Z,14.19
2023-03-31T17:05:21.587Z,14.17
2023-03-31T17:08:26.299Z,14.16
2023-03-31T17:11:32.377Z,14.12
2023-03-31T17:14:36.039Z,14.12
2023-03-31T17:17:38.466Z,14.15
2023-03-31T17:20:40.881Z,14.06
2023-03-31T17:23:43.361Z,14.09
2023-03-31T17:26:46.014Z,14.10
2023-03-31T17:29:48.214Z,13.99
2023-03-31T17:32:51.588Z,13.97
2023-03-31T17:36:01.128Z,13.95
2023-03-31T17:39:05.127Z,13.79
2023-03-31T17:42:08.235Z,13.79
2023-03-31T17:45:12.154Z,13.71
2023-03-31T17:48:16.420Z,13.69
2023-03-31T17:51:19.652Z,13.68
2023-03-31T17:54:22.077Z,13.57
2023-03-31T17:57:24.413Z,13.46
2023-03-31T18:00:26.721Z,13.45
2023-03-31T18:03:29.588Z,13.45
2023-03-31T18:06:32.002Z,13.43
2023-03-31T18:09:34.677Z,13.36
2023-03-31T18:12:36.954Z,13.30
2023-03-31T18:15:39.452Z,13.42
2023-03-31T18:18:42.438Z,13.26
2023-03-31T18:21:44.806Z,13.15
2023-03-31T18:24:47.422Z,13.02
2023-03-31T18:27:50.150Z,12.93
2023-03-31T18:30:53.318Z,12.91
2023-03-31T18:33:55.858Z,12.83
2023-03-31T18:36:58.393Z,12.80
2023-03-31T18:40:01.610Z,12.61
2023-03-31T18:43:04.319Z,12.59
2023-03-31T18:46:07.730Z,12.46
2023-03-31T18:49:11.356Z,12.35
2023-03-31T18:52:14.293Z,12.36
2023-03-31T18:55:16.809Z,12.46
2023-03-31T18:58:19.320Z,12.35
2023-03-31T19:01:21.937Z,12.30
2023-03-31T19:04:24.563Z,12.40
2023-03-31T19:07:26.773Z,12.40
2023-03-31T19:10:29.153Z,12.49
2023-03-31T19:13:32.035Z,12.48
2023-03-31T19:16:41.556Z,12.56
2023-03-31T19:19:45.241Z,12.71
2023-03-31T19:22:50.210Z,12.65
2023-03-31T19:25:54.593Z,12.65
2023-03-31T19:28:57.046Z,12.63
2023-03-31T19:31:59.802Z,12.46
2023-03-31T19:35:02.422Z,11.94
2023-03-31T19:38:05.080Z,11.96
2023-03-31T19:41:07.741Z,11.81
2023-03-31T19:44:10.299Z,11.68
2023-03-31T19:47:12.947Z,11.65
2023-03-31T19:50:15.621Z,11.50
2023-03-31T19:53:18.791Z,11.56
2023-03-31T19:56:25.145Z,11.49
2023-03-31T19:59:27.652Z,11.41
2023-03-31T20:02:30.394Z,11.38
2023-03-31T20:05:33.039Z,11.11
2023-03-31T20:08:36.495Z,11.27
2023-03-31T20:11:40.016Z,11.20
2023-03-31T20:14:43.616Z,11.08
2023-03-31T20:17:47.189Z,10.93
2023-03-31T20:20:49.788Z,11.01
2023-03-31T20:23:52.104Z,10.91
2023-03-31T20:26:54.535Z,10.94
2023-03-31T20:29:58.016Z,10.84
2023-03-31T20:33:00.571Z,10.73
2023-03-31T20:36:08.967Z,10.60
2023-03-31T20:39:13.235Z,10.31
2023-03-31T20:42:16.767Z,10.36
2023-03-31T20:45:19.085Z,10.36
2023-03-31T20:48:21.429Z,10.45
2023-03-31T20:51:29.443Z,10.46
2023-03-31T20:54:32.082Z,10.43
2023-03-31T20:57:34.332Z,10.46
2023-03-31T21:00:36.695Z,10.42
2023-03-31T21:03:39.101Z,10.36
2023-03-31T21:06:44.600Z,10.31
2023-03-31T21:09:46.925Z,10.08
2023-03-31T21:12:49.118Z,10.10
2023-03-31T21:15:54.432Z,9.79
2023-03-31T21:18:57.107Z,9.88
2023-03-31T21:21:59.294Z,9.82
2023-03-31T21:25:01.535Z,9.78
2023-03-31T21:28:03.804Z,9.84
2023-03-31T21:31:08.265Z,9.80
2023-03-31T21:34:10.937Z,9.87
2023-03-31T21:37:13.304Z,9.94
2023-03-31T21:40:16.697Z,9.95
2023-03-31T21:43:23.604Z,10.04
2023-03-31T21:46:28.597Z,10.07
2023-03-31T21:49:30.854Z,10.08
2023-03-31T21:52:33.348Z,10.19
2023-03-31T21:55:37.280Z,10.15
2023-03-31T21:58:39.448Z,10.07
2023-03-31T22:01:41.787Z,10.08
2023-03-31T22:04:44.115Z,10.09
2023-03-31T22:07:46.668Z,10.10
2023-03-31T22:10:52.307Z,10.17
2023-03-31T22:13:54.550Z,9.99
2023-03-31T22:16:57.085Z,10.01
2023-03-31T22:19:59.326Z,9.98
2023-03-31T22:23:01.696Z,9.93
2023-03-31T22:26:04.045Z,9.85
2023-03-31T22:29:06.425Z,10.03
2023-03-31T22:32:08.620Z,9.97
2023-03-31T22:35:11.202Z,9.82
2023-03-31T22:38:14.026Z,9.96
2023-03-31T22:41:16.298Z,9.84
2023-03-31T22:44:18.724Z,9.85
2023-03-31T22:47:21.009Z,9.84
2023-03-31T22:50:24.035Z,9.84
2023-03-31T22:53:26.439Z,9.82
2023-03-31T22:56:28.662Z,9.67
2023-03-31T22:59:31.222Z,9.81
2023-03-31T23:02:33.484Z,9.75
2023-03-31T23:05:35.949Z,9.67
2023-03-31T23:08:38.834Z,9.78
2023-03-31T23:11:41.295Z,9.60
2023-03-31T23:14:43.488Z,9.56
2023-03-31T23:17:45.727Z,9.46
2023-03-31T23:20:48.144Z,9.44
2023-03-31T23:23:53.629Z,9.50
2023-03-31T23:26:55.863Z,9.39
2023-03-31T23:29:58.066Z,9.43
2023-03-31T23:36:05.063Z,9.22
2023-03-31T23:39:07.276Z,9.01
2023-03-31T23:42:10.089Z,9.05
2023-03-31T23:45:12.270Z,9.02
2023-03-31T23:48:14.530Z,8.92
2023-03-31T23:51:16.800Z,8.94
2023-03-31T23:54:19.452Z,9.01
2023-03-31T23:57:21.654Z,8.90
